createdAt,value
2022-10-16T00:01:44.358Z,57.26
2022-10-16T00:04:11.533Z,57.29
2022-10-16T00:06:39.519Z,57.47
2022-10-16T00:09:08.183Z,57.24
2022-10-16T00:11:39.118Z,57.17
2022-10-16T00:14:13.952Z,57.08
2022-10-16T00:16:42.523Z,57.30
2022-10-16T00:19:12.358Z,57.36
2022-10-16T00:21:39.884Z,57.56
2022-10-16T00:24:10.221Z,57.38
2022-10-16T00:26:39.469Z,57.36
2022-10-16T00:29:07.500Z,57.19
2022-10-16T00:31:35.798Z,57.30
2022-10-16T00:34:03.360Z,57.48
2022-10-16T00:36:30.567Z,57.55
2022-10-16T00:41:32.073Z,57.91
2022-10-16T00:44:03.340Z,58.07
2022-10-16T00:46:33.239Z,58.22
2022-10-16T00:49:15.374Z,58.10
2022-10-16T00:51:50.407Z,58.00
2022-10-16T00:54:31.181Z,58.22
2022-10-16T00:57:04.463Z,58.34
2022-10-16T00:59:35.915Z,58.07
2022-10-16T01:02:06.695Z,58.43
2022-10-16T01:04:40.005Z,58.53
2022-10-16T01:07:38.053Z,58.77
2022-10-16T01:10:15.491Z,58.77
2022-10-16T01:13:02.561Z,58.64
2022-10-16T01:15:53.256Z,58.66
2022-10-16T01:18:37.908Z,58.53
2022-10-16T01:21:17.325Z,59.10
2022-10-16T01:24:11.571Z,58.95
2022-10-16T01:27:12.646Z,58.78
2022-10-16T01:29:49.062Z,59.05
2022-10-16T01:32:39.082Z,59.06
2022-10-16T01:35:30.707Z,59.17
2022-10-16T01:38:24.583Z,59.05
2022-10-16T01:41:04.168Z,59.32
2022-10-16T01:44:11.552Z,59.30
2022-10-16T01:46:46.469Z,59.65
2022-10-16T01:49:14.948Z,59.51
2022-10-16T01:51:47.214Z,59.47
2022-10-16T01:54:18.934Z,59.63
2022-10-16T01:56:49.970Z,59.43
2022-10-16T01:59:24.702Z,59.67
2022-10-16T02:01:58.478Z,59.82
2022-10-16T02:04:32.818Z,59.99
2022-10-16T02:07:00.912Z,59.93
2022-10-16T02:09:28.247Z,60.05
2022-10-16T02:12:00.110Z,60.07
2022-10-16T02:14:28.166Z,60.06
2022-10-16T02:16:55.356Z,59.85
2022-10-16T02:19:23.770Z,60.16
2022-10-16T02:22:03.813Z,60.39
2022-10-16T02:25:00.872Z,60.00
2022-10-16T02:27:53.597Z,60.32
2022-10-16T02:30:40.510Z,60.58
2022-10-16T02:33:12.835Z,60.51
2022-10-16T02:35:42.443Z,60.65
2022-10-16T02:38:11.668Z,60.67
2022-10-16T02:40:40.057Z,60.80
2022-10-16T02:43:07.992Z,60.83
2022-10-16T02:45:35.238Z,60.72
2022-10-16T02:48:02.416Z,60.64
2022-10-16T02:50:29.623Z,60.60
2022-10-16T02:52:56.775Z,60.33
2022-10-16T02:55:23.964Z,60.55
2022-10-16T02:57:51.837Z,60.33
2022-10-16T03:00:19.916Z,60.56
2022-10-16T03:02:47.460Z,60.68
2022-10-16T03:05:15.739Z,60.85
2022-10-16T03:07:43.067Z,60.82
2022-10-16T03:10:10.434Z,61.00
2022-10-16T03:12:37.662Z,60.87
2022-10-16T03:15:06.041Z,60.88
2022-10-16T03:17:33.808Z,61.04
2022-10-16T03:20:01.118Z,60.98
2022-10-16T03:22:28.420Z,61.02
2022-10-16T03:24:55.857Z,60.97
2022-10-16T03:27:23.175Z,61.12
2022-10-16T03:29:50.556Z,61.11
2022-10-16T03:32:17.792Z,61.21
2022-10-16T03:34:45.028Z,61.25
2022-10-16T03:37:12.458Z,61.17
2022-10-16T03:39:39.625Z,61.19
2022-10-16T03:42:06.748Z,61.13
2022-10-16T03:44:33.950Z,61.34
2022-10-16T03:47:01.057Z,61.34
2022-10-16T03:49:28.281Z,61.39
2022-10-16T03:51:55.487Z,61.26
2022-10-16T03:54:22.697Z,61.49
2022-10-16T03:56:50.111Z,61.32
2022-10-16T03:59:17.434Z,61.20
2022-10-16T04:01:44.691Z,61.19
2022-10-16T04:04:11.846Z,60.95
2022-10-16T04:06:39.026Z,61.20
2022-10-16T04:09:06.255Z,60.91
2022-10-16T04:11:33.443Z,61.10
2022-10-16T04:14:00.920Z,61.15
2022-10-16T04:16:28.064Z,60.94
2022-10-16T04:18:55.231Z,60.92
2022-10-16T04:21:22.359Z,60.65
2022-10-16T04:23:49.627Z,60.91
2022-10-16T04:26:16.935Z,60.87
2022-10-16T04:28:44.957Z,60.82
2022-10-16T04:31:12.246Z,60.60
2022-10-16T04:33:39.494Z,60.62
2022-10-16T04:36:06.901Z,60.97
2022-10-16T04:38:34.290Z,60.60
2022-10-16T04:41:01.776Z,60.54
2022-10-16T04:45:56.206Z,60.10
2022-10-16T04:48:23.811Z,60.38
2022-10-16T04:50:54.419Z,60.19
2022-10-16T04:53:22.634Z,60.11
2022-10-16T04:55:50.966Z,60.14
2022-10-16T04:58:18.744Z,60.09
2022-10-16T05:00:46.549Z,60.13
2022-10-16T05:03:14.669Z,60.20
2022-10-16T05:05:46.839Z,59.99
2022-10-16T05:08:16.167Z,60.35
2022-10-16T05:10:45.085Z,60.28
2022-10-16T05:13:13.186Z,60.52
2022-10-16T05:15:40.633Z,60.64
2022-10-16T05:18:07.873Z,60.53
2022-10-16T05:20:35.061Z,60.86
2022-10-16T05:23:02.572Z,60.87
2022-10-16T05:25:29.879Z,60.73
2022-10-16T05:27:57.013Z,60.63
2022-10-16T05:30:24.526Z,60.60
2022-10-16T05:32:52.509Z,60.41
2022-10-16T05:35:21.146Z,60.31
2022-10-16T05:37:49.210Z,60.22
2022-10-16T05:40:16.980Z,60.32
2022-10-16T05:42:44.134Z,60.44
2022-10-16T05:45:12.497Z,60.46
2022-10-16T05:47:40.310Z,60.40
2022-10-16T05:50:08.340Z,60.05
2022-10-16T05:52:35.552Z,60.28
2022-10-16T05:55:02.846Z,60.37
2022-10-16T05:57:30.006Z,60.22
2022-10-16T05:59:57.717Z,60.26
2022-10-16T06:02:25.067Z,60.33
2022-10-16T06:04:55.155Z,60.24
2022-10-16T06:07:24.020Z,60.19
2022-10-16T06:09:53.772Z,60.34
2022-10-16T06:12:21.454Z,60.47
2022-10-16T06:14:48.642Z,60.13
2022-10-16T06:17:16.140Z,60.17
2022-10-16T06:19:43.643Z,60.46
2022-10-16T06:22:10.988Z,60.26
2022-10-16T06:24:38.175Z,60.23
2022-10-16T06:27:05.907Z,60.31
2022-10-16T06:29:33.139Z,60.28
2022-10-16T06:32:00.747Z,60.52
2022-10-16T06:34:27.924Z,60.25
2022-10-16T06:36:55.243Z,60.26
2022-10-16T06:39:22.486Z,60.30
2022-10-16T06:41:49.662Z,60.42
2022-10-16T06:44:16.899Z,60.53
2022-10-16T06:46:44.043Z,60.58
2022-10-16T06:49:11.220Z,60.51
2022-10-16T06:51:42.123Z,60.58
2022-10-16T06:54:10.619Z,60.65
2022-10-16T06:56:37.825Z,60.73
2022-10-16T06:59:05.551Z,60.75
2022-10-16T07:01:33.913Z,60.71
2022-10-16T07:04:03.028Z,60.68
2022-10-16T07:06:34.689Z,60.39
2022-10-16T07:09:08.293Z,60.49
2022-10-16T07:11:37.787Z,60.69
2022-10-16T07:14:06.182Z,60.71
2022-10-16T07:16:34.180Z,60.84
2022-10-16T07:19:03.682Z,60.80
2022-10-16T07:21:34.381Z,60.83
2022-10-16T07:24:02.623Z,60.77
2022-10-16T07:26:33.679Z,60.92
2022-10-16T07:29:01.545Z,61.09
2022-10-16T07:31:29.345Z,61.24
2022-10-16T07:33:59.641Z,61.05
2022-10-16T07:36:26.915Z,61.17
2022-10-16T07:38:57.065Z,60.99
2022-10-16T07:41:28.378Z,61.05
2022-10-16T07:43:57.609Z,61.47
2022-10-16T07:46:25.016Z,61.42
2022-10-16T07:48:52.820Z,61.02
2022-10-16T07:51:24.201Z,61.18
2022-10-16T07:53:52.123Z,60.66
2022-10-16T07:56:21.393Z,60.50
2022-10-16T07:58:49.972Z,60.21
2022-10-16T08:01:18.861Z,60.58
2022-10-16T08:03:52.229Z,60.56
2022-10-16T08:06:25.260Z,60.00
2022-10-16T08:08:57.583Z,59.74
2022-10-16T08:11:24.951Z,59.48
2022-10-16T08:13:52.129Z,58.90
2022-10-16T08:16:19.282Z,59.02
2022-10-16T08:18:47.016Z,58.73
2022-10-16T08:21:20.461Z,58.41
2022-10-16T08:23:54.427Z,58.66
2022-10-16T08:26:27.379Z,58.82
2022-10-16T08:28:55.849Z,58.81
2022-10-16T08:31:23.747Z,58.19
2022-10-16T08:33:51.008Z,58.14
2022-10-16T08:36:18.366Z,58.06
2022-10-16T08:38:49.183Z,57.74
2022-10-16T08:41:39.251Z,57.46
2022-10-16T08:44:36.874Z,57.26
2022-10-16T08:47:22.843Z,56.90
2022-10-16T08:50:09.273Z,56.85
2022-10-16T08:52:42.820Z,56.36
2022-10-16T08:55:42.537Z,56.40
2022-10-16T08:58:22.904Z,56.24
2022-10-16T09:01:00.988Z,56.43
2022-10-16T09:04:08.646Z,56.24
2022-10-16T09:06:44.315Z,56.10
2022-10-16T09:09:45.150Z,55.74
2022-10-16T09:12:30.088Z,55.78
2022-10-16T09:15:35.761Z,55.67
2022-10-16T09:18:21.116Z,55.38
2022-10-16T09:20:53.449Z,55.25
2022-10-16T09:23:31.258Z,55.22
2022-10-16T09:26:00.825Z,55.11
2022-10-16T09:28:28.156Z,54.93
2022-10-16T09:30:55.448Z,54.56
2022-10-16T09:33:34.785Z,54.48
2022-10-16T09:36:06.002Z,54.37
2022-10-16T09:38:37.099Z,54.12
2022-10-16T09:41:23.515Z,53.95
2022-10-16T09:44:01.326Z,53.65
2022-10-16T09:46:37.692Z,53.16
2022-10-16T09:49:19.391Z,53.15
2022-10-16T09:51:46.745Z,53.25
2022-10-16T09:54:21.257Z,53.21
2022-10-16T09:56:49.907Z,52.99
2022-10-16T09:59:20.303Z,52.75
2022-10-16T10:01:55.438Z,52.84
2022-10-16T10:04:25.570Z,52.71
2022-10-16T10:06:58.428Z,52.43
2022-10-16T10:09:43.811Z,52.36
2022-10-16T10:12:28.145Z,52.43
2022-10-16T10:15:08.681Z,52.56
2022-10-16T10:17:54.887Z,52.12
2022-10-16T10:20:31.451Z,51.88
2022-10-16T10:22:58.706Z,51.82
2022-10-16T10:25:32.108Z,51.91
2022-10-16T10:28:14.344Z,51.76
2022-10-16T10:31:11.904Z,51.35
2022-10-16T10:34:16.590Z,51.20
2022-10-16T10:36:53.888Z,51.50
2022-10-16T10:39:42.126Z,50.72
2022-10-16T10:42:36.525Z,50.45
2022-10-16T10:45:26.074Z,50.36
2022-10-16T10:48:21.489Z,50.16
2022-10-16T10:50:51.565Z,49.87
2022-10-16T10:53:42.961Z,49.86
2022-10-16T10:56:20.415Z,49.74
2022-10-16T10:59:00.172Z,48.91
2022-10-16T11:01:30.016Z,47.37
2022-10-16T11:05:03.384Z,44.20
2022-10-16T11:07:41.446Z,39.83
2022-10-16T11:10:28.181Z,36.96
2022-10-16T11:13:16.155Z,34.07
2022-10-16T11:19:04.999Z,30.70
2022-10-16T11:21:47.130Z,29.19
2022-10-16T11:24:49.085Z,29.15
2022-10-16T11:27:23.495Z,28.20
2022-10-16T11:30:00.745Z,27.57
2022-10-16T11:32:40.313Z,26.73
2022-10-16T11:35:24.340Z,26.97
2022-10-16T11:37:54.759Z,26.43
2022-10-16T11:40:39.645Z,26.33
2022-10-16T11:43:23.072Z,26.50
2022-10-16T11:46:00.099Z,26.43
2022-10-16T11:48:41.008Z,26.50
2022-10-16T11:51:36.391Z,26.81
2022-10-16T11:54:36.267Z,27.02
2022-10-16T11:57:22.081Z,27.02
2022-10-16T12:00:06.870Z,27.65
2022-10-16T12:03:05.697Z,27.53
2022-10-16T12:08:17.624Z,27.88
2022-10-16T12:10:48.331Z,29.12
2022-10-16T12:13:34.802Z,28.19
2022-10-16T12:16:12.419Z,28.76
2022-10-16T12:18:46.245Z,28.43
2022-10-16T12:21:21.529Z,28.56
2022-10-16T12:23:59.483Z,28.19
2022-10-16T12:26:34.286Z,29.36
2022-10-16T12:29:29.899Z,29.68
2022-10-16T12:31:58.767Z,30.70
2022-10-16T12:34:44.391Z,29.63
2022-10-16T12:37:24.111Z,29.67
2022-10-16T12:39:54.285Z,29.71
2022-10-16T12:42:29.844Z,29.69
2022-10-16T12:44:57.646Z,29.43
2022-10-16T12:47:39.325Z,28.87
2022-10-16T12:50:36.894Z,29.29
2022-10-16T12:53:23.698Z,28.99
2022-10-16T12:57:01.892Z,29.69
2022-10-16T13:00:04.401Z,29.65
2022-10-16T13:03:31.080Z,30.60
2022-10-16T13:06:21.099Z,31.07
2022-10-16T13:09:10.319Z,30.58
2022-10-16T13:12:24.752Z,30.55
2022-10-16T13:14:51.827Z,31.03
2022-10-16T13:17:30.464Z,30.45
2022-10-16T13:20:24.892Z,31.35
2022-10-16T13:23:22.273Z,31.49
2022-10-16T13:26:32.526Z,31.62
2022-10-16T13:29:04.521Z,31.29
2022-10-16T13:31:33.265Z,30.20
2022-10-16T13:34:02.345Z,29.57
2022-10-16T13:36:49.886Z,31.66
2022-10-16T13:39:31.458Z,31.01
2022-10-16T13:42:20.899Z,30.52
2022-10-16T13:44:55.506Z,29.99
2022-10-16T13:47:30.042Z,30.45
2022-10-16T13:50:07.772Z,30.49
2022-10-16T13:52:35.056Z,30.25
2022-10-16T13:55:02.629Z,30.85
2022-10-16T13:57:30.179Z,30.22
2022-10-16T13:59:57.497Z,30.48
2022-10-16T14:02:38.934Z,30.26
2022-10-16T14:05:11.311Z,29.91
2022-10-16T14:07:39.425Z,29.62
2022-10-16T14:10:22.945Z,29.42
2022-10-16T14:13:00.705Z,29.88
2022-10-16T14:15:28.581Z,29.34
2022-10-16T14:17:57.164Z,29.76
2022-10-16T14:20:30.933Z,29.94
2022-10-16T14:23:05.496Z,29.77
2022-10-16T14:25:33.757Z,29.94
2022-10-16T14:28:23.272Z,29.76
2022-10-16T14:31:00.808Z,30.21
2022-10-16T14:33:31.009Z,30.73
2022-10-16T14:36:11.840Z,30.82
2022-10-16T14:39:21.687Z,31.79
2022-10-16T14:41:52.082Z,32.66
2022-10-16T14:44:24.147Z,33.47
2022-10-16T14:46:51.467Z,33.93
2022-10-16T14:49:22.858Z,34.50
2022-10-16T14:51:50.133Z,34.42
2022-10-16T14:54:20.105Z,34.90
2022-10-16T14:56:58.337Z,35.21
2022-10-16T14:59:39.950Z,35.65
2022-10-16T15:02:19.444Z,36.32
2022-10-16T15:04:46.867Z,36.16
2022-10-16T15:07:14.079Z,36.55
2022-10-16T15:09:44.857Z,36.98
2022-10-16T15:12:13.919Z,37.44
2022-10-16T15:14:41.198Z,37.45
2022-10-16T15:17:12.027Z,37.98
2022-10-16T15:19:39.595Z,38.38
2022-10-16T15:22:06.825Z,38.46
2022-10-16T15:24:33.971Z,38.59
2022-10-16T15:27:01.267Z,38.93
2022-10-16T15:29:28.400Z,39.65
2022-10-16T15:31:55.644Z,39.96
2022-10-16T15:34:22.883Z,40.18
2022-10-16T15:36:50.036Z,40.04
2022-10-16T15:39:20.407Z,40.70
2022-10-16T15:41:49.317Z,40.45
2022-10-16T15:44:16.499Z,41.14
2022-10-16T15:46:43.998Z,41.14
2022-10-16T15:49:12.601Z,41.25
2022-10-16T15:51:42.636Z,41.51
2022-10-16T15:54:10.613Z,41.98
2022-10-16T15:56:37.948Z,41.75
2022-10-16T15:59:06.544Z,42.00
2022-10-16T16:01:35.420Z,42.33
2022-10-16T16:04:11.053Z,42.51
2022-10-16T16:06:47.763Z,42.73
2022-10-16T16:09:16.036Z,43.04
2022-10-16T16:11:44.199Z,43.30
2022-10-16T16:14:15.042Z,43.37
2022-10-16T16:16:43.750Z,43.56
2022-10-16T16:19:11.899Z,43.54
2022-10-16T16:21:40.292Z,44.03
2022-10-16T16:24:07.515Z,43.99
2022-10-16T16:26:35.921Z,44.38
2022-10-16T16:29:04.969Z,44.68
2022-10-16T16:31:34.037Z,44.86
2022-10-16T16:34:01.346Z,45.12
2022-10-16T16:36:28.470Z,45.17
2022-10-16T16:38:55.687Z,45.45
2022-10-16T16:41:28.037Z,45.58
2022-10-16T16:43:56.996Z,45.72
2022-10-16T16:46:24.310Z,45.64
2022-10-16T16:48:51.684Z,45.89
2022-10-16T16:51:19.903Z,46.08
2022-10-16T16:53:50.773Z,46.05
2022-10-16T16:56:19.887Z,46.22
2022-10-16T16:58:49.245Z,46.10
2022-10-16T17:01:21.523Z,46.04
2022-10-16T17:03:53.162Z,45.94
2022-10-16T17:06:28.341Z,46.10
2022-10-16T17:08:55.781Z,46.11
2022-10-16T17:11:27.251Z,46.40
2022-10-16T17:13:57.663Z,46.69
2022-10-16T17:16:35.907Z,47.03
2022-10-16T17:19:07.713Z,47.17
2022-10-16T17:21:36.551Z,47.27
2022-10-16T17:24:04.605Z,47.56
2022-10-16T17:26:32.160Z,47.79
2022-10-16T17:29:02.115Z,47.96
2022-10-16T17:31:37.355Z,47.82
2022-10-16T17:34:10.832Z,48.04
2022-10-16T17:36:39.679Z,48.27
2022-10-16T17:39:08.829Z,48.40
2022-10-16T17:41:36.776Z,48.50
2022-10-16T17:44:06.420Z,48.75
2022-10-16T17:46:38.356Z,48.68
2022-10-16T17:49:10.246Z,48.97
2022-10-16T17:51:38.292Z,48.94
2022-10-16T17:54:06.995Z,49.03
2022-10-16T17:56:34.736Z,49.07
2022-10-16T17:59:02.419Z,49.25
2022-10-16T18:01:38.784Z,49.31
2022-10-16T18:04:12.470Z,49.44
2022-10-16T18:06:43.177Z,49.85
2022-10-16T18:09:15.094Z,49.56
2022-10-16T18:11:42.667Z,49.84
2022-10-16T18:14:15.450Z,49.40
2022-10-16T18:16:43.671Z,49.71
2022-10-16T18:19:12.258Z,49.66
2022-10-16T18:21:39.486Z,49.54
2022-10-16T18:24:11.151Z,49.71
2022-10-16T18:26:39.166Z,49.29
2022-10-16T18:29:07.218Z,49.31
2022-10-16T18:31:37.747Z,49.45
2022-10-16T18:34:07.874Z,49.65
2022-10-16T18:36:36.627Z,49.67
2022-10-16T18:39:07.565Z,49.87
2022-10-16T18:41:35.657Z,49.76
2022-10-16T18:44:12.333Z,49.71
2022-10-16T18:46:39.989Z,49.52
2022-10-16T18:49:08.519Z,49.69
2022-10-16T18:51:40.361Z,49.88
2022-10-16T18:54:11.177Z,50.02
2022-10-16T18:56:39.346Z,50.02
2022-10-16T18:59:12.033Z,50.14
2022-10-16T19:01:40.254Z,50.11
2022-10-16T19:04:14.981Z,50.05
2022-10-16T19:06:48.172Z,50.32
2022-10-16T19:09:18.218Z,50.82
2022-10-16T19:11:46.410Z,50.69
2022-10-16T19:14:16.573Z,50.69
2022-10-16T19:16:44.432Z,50.76
2022-10-16T19:19:17.078Z,50.67
2022-10-16T19:21:44.630Z,50.45
2022-10-16T19:24:15.204Z,50.75
2022-10-16T19:26:43.484Z,50.46
2022-10-16T19:29:11.801Z,50.60
2022-10-16T19:31:39.704Z,50.47
2022-10-16T19:34:07.842Z,50.95
2022-10-16T19:36:37.591Z,50.71
2022-10-16T19:39:11.542Z,50.72
2022-10-16T19:41:39.519Z,50.76
2022-10-16T19:44:09.568Z,50.68
2022-10-16T19:46:37.610Z,50.99
2022-10-16T19:49:09.469Z,50.97
2022-10-16T19:51:38.494Z,50.90
2022-10-16T19:54:11.796Z,51.04
2022-10-16T19:56:43.947Z,50.81
2022-10-16T19:59:13.644Z,51.20
2022-10-16T20:01:42.611Z,51.20
2022-10-16T20:04:11.546Z,51.12
2022-10-16T20:06:39.089Z,51.28
2022-10-16T20:09:06.660Z,51.16
2022-10-16T20:11:36.085Z,51.25
2022-10-16T20:14:05.360Z,51.32
2022-10-16T20:16:32.571Z,51.39
2022-10-16T20:19:00.293Z,51.48
2022-10-16T20:21:31.770Z,51.46
2022-10-16T20:24:02.722Z,51.66
2022-10-16T20:26:30.076Z,51.37
2022-10-16T20:28:57.318Z,51.64
2022-10-16T20:31:28.602Z,51.79
2022-10-16T20:34:01.407Z,51.88
2022-10-16T20:36:28.805Z,51.75
2022-10-16T20:38:56.531Z,51.72
2022-10-16T20:41:24.432Z,52.11
2022-10-16T20:43:53.845Z,52.14
2022-10-16T20:46:25.133Z,52.29
2022-10-16T20:48:53.820Z,52.35
2022-10-16T20:51:30.773Z,52.61
2022-10-16T20:54:01.778Z,52.25
2022-10-16T20:56:32.415Z,52.22
2022-10-16T20:58:59.617Z,52.54
2022-10-16T21:01:29.606Z,52.85
2022-10-16T21:04:01.091Z,52.68
2022-10-16T21:06:29.517Z,52.74
2022-10-16T21:08:58.224Z,53.00
2022-10-16T21:11:27.508Z,52.66
2022-10-16T21:13:57.870Z,52.79
2022-10-16T21:16:26.260Z,52.89
2022-10-16T21:18:54.226Z,53.09
2022-10-16T21:21:31.766Z,52.87
2022-10-16T21:24:00.286Z,52.88
2022-10-16T21:26:29.484Z,52.81
2022-10-16T21:29:00.331Z,52.94
2022-10-16T21:31:28.764Z,52.77
2022-10-16T21:33:56.649Z,52.64
2022-10-16T21:36:27.492Z,52.65
2022-10-16T21:38:56.037Z,52.64
2022-10-16T21:41:27.133Z,52.49
2022-10-16T21:43:57.062Z,52.63
2022-10-16T21:46:31.154Z,52.69
2022-10-16T21:49:01.494Z,52.67
2022-10-16T21:51:36.372Z,52.88
2022-10-16T21:54:08.360Z,52.91
2022-10-16T21:56:35.868Z,52.90
2022-10-16T21:59:03.436Z,52.80
2022-10-16T22:01:30.727Z,52.81
2022-10-16T22:03:58.940Z,53.04
2022-10-16T22:06:28.643Z,52.95
2022-10-16T22:08:59.991Z,52.95
2022-10-16T22:11:31.561Z,53.00
2022-10-16T22:13:58.847Z,53.08
2022-10-16T22:16:26.996Z,52.88
2022-10-16T22:18:58.289Z,53.00
2022-10-16T22:21:27.439Z,53.15
2022-10-16T22:23:55.159Z,53.29
2022-10-16T22:26:22.818Z,53.25
2022-10-16T22:28:50.746Z,53.41
2022-10-16T22:31:18.449Z,53.49
2022-10-16T22:33:45.702Z,53.43
2022-10-16T22:36:15.486Z,53.71
2022-10-16T22:38:42.841Z,53.73
2022-10-16T22:41:13.939Z,53.89
2022-10-16T22:43:47.685Z,54.01
2022-10-16T22:46:25.943Z,53.86
2022-10-16T22:48:55.803Z,53.80
2022-10-16T22:51:25.484Z,53.74
2022-10-16T22:53:52.706Z,53.92
2022-10-16T22:56:22.094Z,53.69
2022-10-16T22:58:49.771Z,53.90
2022-10-16T23:01:23.510Z,53.76
2022-10-16T23:03:50.991Z,53.85
2022-10-16T23:06:18.223Z,53.67
2022-10-16T23:08:45.914Z,53.65
2022-10-16T23:11:13.645Z,54.01
2022-10-16T23:13:42.503Z,54.19
2022-10-16T23:16:09.941Z,54.11
2022-10-16T23:18:37.162Z,53.81
2022-10-16T23:21:10.890Z,53.88
2022-10-16T23:23:40.125Z,54.08
2022-10-16T23:26:17.821Z,53.90
2022-10-16T23:28:46.013Z,54.07
2022-10-16T23:31:15.376Z,54.09
2022-10-16T23:33:42.983Z,54.09
2022-10-16T23:36:18.901Z,53.72
2022-10-16T23:38:47.809Z,54.16
2022-10-16T23:41:16.548Z,54.09
2022-10-16T23:43:44.246Z,53.96
2022-10-16T23:46:13.332Z,54.06
2022-10-16T23:48:41.516Z,53.85
2022-10-16T23:51:10.218Z,53.86
2022-10-16T23:53:37.640Z,53.72
2022-10-16T23:56:05.358Z,53.69
2022-10-16T23:58:32.723Z,53.98
